createdAt,value
2018-11-23T00:01:06.685Z,1.10
2018-11-23T00:03:09.769Z,1.10
2018-11-23T00:05:13.031Z,1.00
2018-11-23T00:07:16.101Z,1.00
2018-11-23T00:09:19.198Z,0.90
2018-11-23T00:11:22.333Z,0.90
2018-11-23T00:13:25.413Z,0.80
2018-11-23T00:15:28.497Z,0.80
2018-11-23T00:17:31.703Z,0.80
2018-11-23T00:19:34.842Z,0.70
2018-11-23T00:21:37.920Z,0.70
2018-11-23T00:23:40.982Z,0.60
2018-11-23T00:25:44.133Z,0.60
2018-11-23T00:27:47.341Z,0.60
2018-11-23T00:29:50.469Z,0.50
2018-11-23T00:31:53.617Z,0.50
2018-11-23T00:33:56.797Z,0.40
2018-11-23T00:35:59.945Z,0.40
2018-11-23T00:38:03.249Z,0.40
2018-11-23T00:40:08.258Z,0.40
2018-11-23T00:42:11.385Z,0.30
2018-11-23T00:44:14.578Z,0.30
2018-11-23T00:46:17.789Z,0.30
2018-11-23T00:48:20.927Z,0.30
2018-11-23T00:50:24.754Z,0.30
2018-11-23T00:52:27.929Z,0.40
2018-11-23T00:54:31.066Z,0.40
2018-11-23T00:56:34.173Z,0.50
2018-11-23T00:58:37.302Z,0.60
2018-11-23T01:00:40.433Z,0.70
2018-11-23T01:02:43.747Z,0.80
2018-11-23T01:04:46.875Z,0.90
2018-11-23T01:06:49.997Z,1.10
2018-11-23T01:08:53.174Z,1.20
2018-11-23T01:10:56.303Z,1.40
2018-11-23T01:12:59.590Z,1.50
2018-11-23T01:15:03.063Z,1.60
2018-11-23T01:17:06.403Z,1.80
2018-11-23T01:19:09.739Z,1.80
2018-11-23T01:21:12.958Z,1.90
2018-11-23T01:23:16.096Z,2.00
2018-11-23T01:25:20.341Z,2.10
2018-11-23T01:27:23.562Z,2.20
2018-11-23T01:29:26.742Z,2.20
2018-11-23T01:31:29.906Z,2.30
2018-11-23T01:33:33.112Z,2.40
2018-11-23T01:35:36.196Z,2.40
2018-11-23T01:37:39.345Z,2.50
2018-11-23T01:39:42.503Z,2.50
2018-11-23T01:41:45.647Z,2.60
2018-11-23T01:43:48.777Z,2.60
2018-11-23T01:45:51.905Z,2.60
2018-11-23T01:47:55.046Z,2.70
2018-11-23T01:49:58.175Z,2.80
2018-11-23T01:52:01.325Z,2.80
2018-11-23T01:54:04.887Z,2.90
2018-11-23T01:56:08.045Z,2.90
2018-11-23T01:58:11.177Z,2.90
2018-11-23T02:00:17.005Z,3.00
2018-11-23T02:02:20.191Z,3.00
2018-11-23T02:04:23.330Z,3.00
2018-11-23T02:06:26.443Z,3.00
2018-11-23T02:08:29.577Z,3.10
2018-11-23T02:10:32.961Z,3.10
2018-11-23T02:12:36.276Z,3.10
2018-11-23T02:14:39.564Z,3.10
2018-11-23T02:16:42.777Z,3.10
2018-11-23T02:18:46.342Z,3.10
2018-11-23T02:20:49.746Z,3.10
2018-11-23T02:22:53.293Z,3.10
2018-11-23T02:24:58.258Z,3.10
2018-11-23T02:27:01.836Z,3.10
2018-11-23T02:29:06.177Z,3.10
2018-11-23T02:31:11.589Z,3.00
2018-11-23T02:33:18.974Z,3.00
2018-11-23T02:35:24.365Z,3.00
2018-11-23T02:38:35.201Z,2.90
2018-11-23T02:40:39.221Z,2.80
2018-11-23T02:42:44.063Z,2.50
2018-11-23T02:44:50.201Z,2.40
2018-11-23T02:46:54.501Z,2.20
2018-11-23T02:48:59.931Z,2.00
2018-11-23T02:51:03.360Z,1.90
2018-11-23T02:53:08.841Z,1.70
2018-11-23T02:55:13.157Z,1.60
2018-11-23T02:57:16.478Z,1.50
2018-11-23T02:59:23.947Z,1.40
2018-11-23T03:01:26.222Z,1.30
2018-11-23T03:03:30.756Z,1.20
2018-11-23T03:05:34.667Z,1.10
2018-11-23T03:07:38.429Z,1.00
2018-11-23T03:09:41.713Z,1.00
2018-11-23T03:11:45.970Z,0.90
2018-11-23T03:13:51.971Z,0.80
2018-11-23T03:15:55.913Z,0.80
2018-11-23T03:18:01.889Z,0.70
2018-11-23T03:20:10.139Z,0.60
2018-11-23T03:22:14.914Z,0.60
2018-11-23T03:24:19.903Z,0.60
2018-11-23T03:26:25.334Z,0.50
2018-11-23T03:28:31.588Z,0.50
2018-11-23T03:30:36.295Z,0.40
2018-11-23T03:32:41.426Z,0.40
2018-11-23T03:34:48.286Z,0.30
2018-11-23T03:36:52.363Z,0.30
2018-11-23T03:38:58.081Z,0.30
2018-11-23T03:41:02.835Z,0.30
2018-11-23T03:43:08.701Z,0.20
2018-11-23T03:45:14.522Z,0.20
2018-11-23T03:47:26.550Z,0.20
2018-11-23T03:49:29.902Z,0.10
2018-11-23T03:51:34.586Z,0.10
2018-11-23T03:53:37.736Z,0.00
2018-11-23T03:55:40.847Z,0.00
2018-11-23T03:57:43.940Z,0.00
2018-11-23T03:59:47.094Z,0.00
2018-11-23T04:01:50.230Z,0.00
2018-11-23T04:03:53.301Z,-0.10
2018-11-23T04:05:56.421Z,-0.10
2018-11-23T04:07:59.510Z,-0.10
2018-11-23T04:10:02.629Z,-0.10
2018-11-23T04:12:05.763Z,-0.10
2018-11-23T04:14:08.878Z,-0.20
2018-11-23T04:16:13.093Z,-0.20
2018-11-23T04:18:16.214Z,-0.20
2018-11-23T04:20:19.336Z,-0.30
2018-11-23T04:22:22.498Z,-0.30
2018-11-23T04:24:25.623Z,-0.30
2018-11-23T04:26:28.724Z,-0.30
2018-11-23T04:28:31.814Z,-0.30
2018-11-23T04:30:34.884Z,-0.40
2018-11-23T04:32:38.009Z,-0.40
2018-11-23T04:34:41.104Z,-0.40
2018-11-23T04:36:44.215Z,-0.40
2018-11-23T04:38:47.359Z,-0.50
2018-11-23T04:40:50.409Z,-0.50
2018-11-23T04:42:53.498Z,-0.50
2018-11-23T04:44:56.585Z,-0.50
2018-11-23T04:46:59.681Z,-0.50
2018-11-23T04:49:02.786Z,-0.60
2018-11-23T04:51:05.914Z,-0.60
2018-11-23T04:53:08.941Z,-0.60
2018-11-23T04:55:12.278Z,-0.60
2018-11-23T04:57:15.397Z,-0.60
2018-11-23T04:59:18.484Z,-0.70
2018-11-23T05:01:21.712Z,-0.70
2018-11-23T05:03:24.856Z,-0.70
2018-11-23T05:05:27.968Z,-0.70
2018-11-23T05:07:31.070Z,-0.70
2018-11-23T05:09:34.164Z,-0.70
2018-11-23T05:11:37.521Z,-0.70
2018-11-23T05:13:42.466Z,-0.80
2018-11-23T05:15:45.602Z,-0.80
2018-11-23T05:17:48.746Z,-0.80
2018-11-23T05:19:51.848Z,-0.80
2018-11-23T05:21:54.931Z,-0.80
2018-11-23T05:23:58.013Z,-0.80
2018-11-23T05:26:04.485Z,-0.90
2018-11-23T05:28:07.585Z,-0.90
2018-11-23T05:30:14.989Z,-0.90
2018-11-23T05:32:18.143Z,-0.90
2018-11-23T05:34:21.558Z,-0.90
2018-11-23T05:36:24.673Z,-0.90
2018-11-23T05:38:29.909Z,-0.90
2018-11-23T05:40:33.001Z,-0.90
2018-11-23T05:42:36.328Z,-0.80
2018-11-23T05:44:39.528Z,-0.90
2018-11-23T05:46:42.720Z,-0.90
2018-11-23T05:48:45.817Z,-0.90
2018-11-23T05:50:48.901Z,-0.90
2018-11-23T05:52:52.157Z,-0.90
2018-11-23T05:54:55.213Z,-0.90
2018-11-23T05:56:58.289Z,-0.90
2018-11-23T05:59:01.395Z,-0.90
2018-11-23T06:01:04.605Z,-1.00
2018-11-23T06:03:07.682Z,-1.00
2018-11-23T06:05:10.846Z,-1.00
2018-11-23T06:07:13.999Z,-1.00
2018-11-23T06:09:17.083Z,-1.00
2018-11-23T06:11:21.236Z,-1.00
2018-11-23T06:13:24.325Z,-1.00
2018-11-23T06:15:27.406Z,-1.00
2018-11-23T06:17:30.501Z,-1.00
2018-11-23T06:19:33.581Z,-1.00
2018-11-23T06:21:36.669Z,-1.00
2018-11-23T06:23:39.757Z,-1.10
2018-11-23T06:25:45.073Z,-1.10
2018-11-23T06:27:48.305Z,-1.10
2018-11-23T06:29:51.369Z,-1.10
2018-11-23T06:31:54.434Z,-1.10
2018-11-23T06:33:57.570Z,-1.00
2018-11-23T06:36:00.666Z,-1.00
2018-11-23T06:38:03.754Z,-1.00
2018-11-23T06:40:08.163Z,-1.00
2018-11-23T06:42:11.269Z,-1.00
2018-11-23T06:44:14.430Z,-1.00
2018-11-23T06:46:17.525Z,-1.00
2018-11-23T06:48:20.617Z,-1.00
2018-11-23T06:50:23.722Z,-1.00
2018-11-23T06:52:26.880Z,-1.00
2018-11-23T06:54:30.589Z,-1.00
2018-11-23T06:56:57.458Z,-1.00
2018-11-23T06:59:19.588Z,-1.00
2018-11-23T07:03:59.556Z,-1.00
2018-11-23T07:09:21.518Z,-0.90
2018-11-23T07:11:42.310Z,-1.00
2018-11-23T07:14:10.490Z,-0.90
2018-11-23T07:18:53.902Z,-0.90
2018-11-23T07:21:42.393Z,-0.90
2018-11-23T07:25:47.050Z,-0.90
2018-11-23T07:28:23.232Z,-0.80
2018-11-23T07:30:44.839Z,-0.80
2018-11-23T07:32:47.929Z,-0.70
2018-11-23T07:34:51.037Z,-0.70
2018-11-23T07:36:54.123Z,-0.70
2018-11-23T07:38:57.210Z,-0.60
2018-11-23T07:41:11.624Z,-0.60
2018-11-23T07:43:14.756Z,-0.50
2018-11-23T07:45:18.053Z,-0.40
2018-11-23T07:47:21.426Z,-0.40
2018-11-23T07:49:24.794Z,-0.30
2018-11-23T07:51:28.202Z,-0.30
2018-11-23T07:53:31.669Z,-0.20
2018-11-23T07:55:35.072Z,-0.20
2018-11-23T07:57:38.518Z,-0.10
2018-11-23T07:59:41.946Z,-0.10
2018-11-23T08:01:45.305Z,0.00
2018-11-23T08:03:48.769Z,0.00
2018-11-23T08:05:52.142Z,0.10
2018-11-23T08:07:57.867Z,0.10
2018-11-23T08:10:02.249Z,0.20
2018-11-23T08:12:06.053Z,0.20
2018-11-23T08:14:10.071Z,0.30
2018-11-23T08:16:13.471Z,0.30
2018-11-23T08:18:16.814Z,0.40
2018-11-23T08:20:21.318Z,0.40
2018-11-23T08:22:24.754Z,0.50
2018-11-23T08:24:28.220Z,0.60
2018-11-23T08:26:31.661Z,0.70
2018-11-23T08:28:35.186Z,0.70
2018-11-23T08:30:41.937Z,0.90
2018-11-23T08:32:46.364Z,1.20
2018-11-23T08:34:50.742Z,1.40
2018-11-23T08:36:54.191Z,1.70
2018-11-23T08:38:57.480Z,2.00
2018-11-23T08:41:00.917Z,2.60
2018-11-23T08:43:04.357Z,2.60
2018-11-23T08:45:09.825Z,2.50
2018-11-23T08:47:13.149Z,2.50
2018-11-23T08:49:16.519Z,2.40
2018-11-23T08:51:19.948Z,2.40
2018-11-23T08:53:30.422Z,2.30
2018-11-23T08:55:33.861Z,2.20
2018-11-23T08:57:37.058Z,2.20
2018-11-23T08:59:40.316Z,2.20
2018-11-23T09:01:43.529Z,2.20
2018-11-23T09:03:46.760Z,2.10
2018-11-23T09:05:50.017Z,2.20
2018-11-23T09:07:54.472Z,2.10
2018-11-23T09:09:57.729Z,2.20
2018-11-23T09:12:01.248Z,2.20
2018-11-23T09:14:04.993Z,2.20
2018-11-23T09:16:08.617Z,2.20
2018-11-23T09:18:11.898Z,2.30
2018-11-23T09:20:16.030Z,2.30
2018-11-23T09:22:23.538Z,2.30
2018-11-23T09:24:22.530Z,2.30
2018-11-23T09:26:26.370Z,2.40
2018-11-23T09:28:29.753Z,2.40
2018-11-23T09:30:33.116Z,2.50
2018-11-23T09:32:37.009Z,2.50
2018-11-23T09:34:40.827Z,2.50
2018-11-23T09:36:43.493Z,2.60
2018-11-23T09:38:46.783Z,2.60
2018-11-23T09:40:49.992Z,2.70
2018-11-23T09:42:53.589Z,2.70
2018-11-23T09:44:56.811Z,2.80
2018-11-23T09:47:00.095Z,2.80
2018-11-23T09:49:03.365Z,2.90
2018-11-23T09:51:06.612Z,2.90
2018-11-23T09:53:09.852Z,3.00
2018-11-23T09:55:13.093Z,3.00
2018-11-23T09:57:16.374Z,3.10
2018-11-23T09:59:19.690Z,3.20
2018-11-23T10:01:24.027Z,3.20
2018-11-23T10:05:45.863Z,3.30
2018-11-23T10:07:50.582Z,3.40
2018-11-23T10:09:54.017Z,3.40
2018-11-23T10:12:08.122Z,3.50
2018-11-23T10:14:30.705Z,3.50
2018-11-23T10:16:35.139Z,3.60
2018-11-23T10:18:39.635Z,3.60
2018-11-23T10:20:46.106Z,3.70
2018-11-23T10:22:50.345Z,3.80
2018-11-23T10:24:55.546Z,3.80
2018-11-23T10:26:58.843Z,3.80
2018-11-23T10:29:02.411Z,3.90
2018-11-23T10:31:09.848Z,3.90
2018-11-23T10:33:14.571Z,4.00
2018-11-23T10:35:19.363Z,4.10
2018-11-23T10:37:24.697Z,4.10
2018-11-23T10:39:31.419Z,4.20
2018-11-23T10:41:39.364Z,4.20
2018-11-23T10:43:42.837Z,4.30
2018-11-23T10:45:48.188Z,4.30
2018-11-23T10:47:52.459Z,4.40
2018-11-23T10:49:58.603Z,4.50
2018-11-23T10:52:02.040Z,4.50
2018-11-23T10:54:09.345Z,4.60
2018-11-23T10:56:14.270Z,4.60
2018-11-23T10:58:23.191Z,4.70
2018-11-23T11:00:31.985Z,4.70
2018-11-23T11:02:44.005Z,4.80
2018-11-23T11:04:55.096Z,4.80
2018-11-23T11:07:04.367Z,4.90
2018-11-23T11:09:51.960Z,4.90
2018-11-23T11:11:56.984Z,5.00
2018-11-23T11:16:27.543Z,5.10
2018-11-23T11:18:35.217Z,5.10
2018-11-23T11:20:40.345Z,5.10
2018-11-23T11:24:00.269Z,5.20
2018-11-23T11:29:12.721Z,5.30
2018-11-23T11:31:35.290Z,5.30
2018-11-23T11:33:38.603Z,5.30
2018-11-23T11:39:02.126Z,5.40
2018-11-23T11:41:12.806Z,5.50
2018-11-23T11:43:16.197Z,5.60
2018-11-23T11:45:28.590Z,5.60
2018-11-23T11:47:31.867Z,5.70
2018-11-23T11:49:35.215Z,5.70
2018-11-23T11:52:18.692Z,5.80
2018-11-23T11:54:24.719Z,5.80
2018-11-23T11:56:28.353Z,5.90
2018-11-23T11:58:34.442Z,5.90
2018-11-23T12:00:47.033Z,6.00
2018-11-23T12:02:51.331Z,6.00
2018-11-23T12:07:34.858Z,6.10
2018-11-23T12:09:43.153Z,6.20
2018-11-23T12:11:48.083Z,6.30
2018-11-23T12:13:55.326Z,6.40
2018-11-23T12:15:58.909Z,6.50
2018-11-23T12:18:14.914Z,6.60
2018-11-23T12:20:23.019Z,6.70
2018-11-23T12:22:26.375Z,6.70
2018-11-23T12:24:30.061Z,6.70
2018-11-23T12:26:38.115Z,6.70
2018-11-23T12:28:41.895Z,6.70
2018-11-23T12:30:45.127Z,6.70
2018-11-23T12:35:37.151Z,6.70
2018-11-23T12:37:55.476Z,6.70
2018-11-23T12:39:58.932Z,6.70
2018-11-23T12:42:27.345Z,6.60
2018-11-23T12:44:30.661Z,6.70
2018-11-23T12:46:42.530Z,6.70
2018-11-23T12:48:46.566Z,6.70
2018-11-23T12:50:51.788Z,6.70
2018-11-23T12:52:56.248Z,6.60
2018-11-23T12:54:59.538Z,6.70
2018-11-23T12:57:02.861Z,6.60
2018-11-23T12:59:06.131Z,6.60
2018-11-23T13:01:09.739Z,6.60
2018-11-23T13:03:13.039Z,6.60
2018-11-23T13:05:16.498Z,6.60
2018-11-23T13:07:19.849Z,6.60
2018-11-23T13:09:23.184Z,6.60
2018-11-23T13:11:26.490Z,6.60
2018-11-23T13:13:29.775Z,6.60
2018-11-23T13:15:33.056Z,6.70
2018-11-23T13:17:36.399Z,6.70
2018-11-23T13:19:39.525Z,6.70
2018-11-23T13:21:42.609Z,6.70
2018-11-23T13:23:46.713Z,6.70
2018-11-23T13:25:49.824Z,6.60
2018-11-23T13:27:52.953Z,6.60
2018-11-23T13:29:56.076Z,6.60
2018-11-23T13:32:00.214Z,6.60
2018-11-23T13:34:02.723Z,6.70
2018-11-23T13:36:09.424Z,6.70
2018-11-23T13:38:14.111Z,6.70
2018-11-23T13:40:18.731Z,6.70
2018-11-23T13:42:21.965Z,6.60
2018-11-23T13:44:25.232Z,6.60
2018-11-23T13:46:28.501Z,6.60
2018-11-23T13:48:31.814Z,6.60
2018-11-23T13:50:35.113Z,6.60
2018-11-23T13:52:38.378Z,6.60
2018-11-23T13:54:41.609Z,6.60
2018-11-23T13:56:44.968Z,6.60
2018-11-23T13:58:48.226Z,6.50
2018-11-23T14:00:51.488Z,6.50
2018-11-23T14:02:54.729Z,6.50
2018-11-23T14:04:57.845Z,6.50
2018-11-23T14:07:00.950Z,6.50
2018-11-23T14:09:07.695Z,6.50
2018-11-23T14:11:13.825Z,6.50
2018-11-23T14:13:17.066Z,6.40
2018-11-23T14:15:27.254Z,6.40
2018-11-23T14:17:30.816Z,6.40
2018-11-23T14:19:33.962Z,6.40
2018-11-23T14:21:37.093Z,6.40
2018-11-23T14:23:40.191Z,6.40
2018-11-23T14:25:43.287Z,6.40
2018-11-23T14:27:46.840Z,6.40
2018-11-23T14:29:50.021Z,6.30
2018-11-23T14:31:53.214Z,6.30
2018-11-23T14:33:56.325Z,6.30
2018-11-23T14:36:02.646Z,6.30
2018-11-23T14:38:21.341Z,6.30
2018-11-23T14:44:25.270Z,6.20
2018-11-23T14:46:38.673Z,6.10
2018-11-23T14:48:51.206Z,6.10
2018-11-23T14:50:55.504Z,6.00
2018-11-23T14:57:59.485Z,5.90
2018-11-23T15:00:10.712Z,5.80
2018-11-23T15:02:44.606Z,5.80
2018-11-23T15:05:01.141Z,5.70
2018-11-23T15:07:04.451Z,5.60
2018-11-23T15:09:33.623Z,5.60
2018-11-23T15:11:44.946Z,5.50
2018-11-23T15:13:48.790Z,5.50
2018-11-23T15:15:53.626Z,5.40
2018-11-23T15:17:57.682Z,5.30
2018-11-23T15:20:09.748Z,5.20
2018-11-23T15:22:19.308Z,5.20
2018-11-23T15:24:22.522Z,5.10
2018-11-23T15:26:28.678Z,5.00
2018-11-23T15:28:32.066Z,4.90
2018-11-23T15:30:36.872Z,4.90
2018-11-23T15:32:47.197Z,4.80
2018-11-23T15:34:52.264Z,4.70
2018-11-23T15:36:55.795Z,4.60
2018-11-23T15:38:59.150Z,4.60
2018-11-23T15:41:03.069Z,4.70
2018-11-23T15:43:19.085Z,4.70
2018-11-23T15:45:25.619Z,4.70
2018-11-23T15:49:53.634Z,4.70
2018-11-23T15:52:02.048Z,4.70
2018-11-23T15:54:05.874Z,4.60
2018-11-23T15:56:09.019Z,4.60
2018-11-23T15:58:13.441Z,4.60
2018-11-23T16:00:21.986Z,4.60
2018-11-23T16:02:26.116Z,4.50
2018-11-23T16:04:29.298Z,4.50
2018-11-23T16:06:32.563Z,4.40
2018-11-23T16:08:35.773Z,4.30
2018-11-23T16:10:42.074Z,4.20
2018-11-23T16:12:46.958Z,4.20
2018-11-23T16:14:51.466Z,4.10
2018-11-23T16:16:54.940Z,4.10
2018-11-23T16:18:58.179Z,4.10
2018-11-23T16:21:01.358Z,4.00
2018-11-23T16:23:10.996Z,4.00
2018-11-23T16:25:14.355Z,4.00
2018-11-23T16:27:17.645Z,4.00
2018-11-23T16:29:20.945Z,3.90
2018-11-23T16:31:24.594Z,3.90
2018-11-23T16:33:29.295Z,3.80
2018-11-23T16:35:35.065Z,3.70
2018-11-23T16:37:38.308Z,3.60
2018-11-23T16:39:42.598Z,3.60
2018-11-23T16:41:50.213Z,3.60
2018-11-23T16:43:56.536Z,3.60
2018-11-23T16:46:05.641Z,3.50
2018-11-23T16:48:09.962Z,3.40
2018-11-23T16:53:01.588Z,3.30
2018-11-23T16:55:39.126Z,3.20
2018-11-23T16:57:44.770Z,3.20
2018-11-23T17:00:10.202Z,3.20
2018-11-23T17:02:13.435Z,3.10
2018-11-23T17:04:16.698Z,3.10
2018-11-23T17:06:19.809Z,3.20
2018-11-23T17:08:22.926Z,3.10
2018-11-23T17:10:27.853Z,3.00
2018-11-23T17:12:30.989Z,3.00
2018-11-23T17:14:34.469Z,3.00
2018-11-23T17:16:37.602Z,3.00
2018-11-23T17:18:40.709Z,3.00
2018-11-23T17:20:43.829Z,3.00
2018-11-23T17:22:48.126Z,2.90
2018-11-23T17:24:51.278Z,2.90
2018-11-23T17:26:54.413Z,2.90
2018-11-23T17:28:57.521Z,2.90
2018-11-23T17:31:00.641Z,2.80
2018-11-23T17:33:03.922Z,2.80
2018-11-23T17:35:07.473Z,2.70
2018-11-23T17:37:10.617Z,2.70
2018-11-23T17:39:13.822Z,2.60
2018-11-23T17:41:16.953Z,2.60
2018-11-23T17:43:20.058Z,2.50
2018-11-23T17:45:24.934Z,2.50
2018-11-23T17:47:28.421Z,2.50
2018-11-23T17:49:31.528Z,2.50
2018-11-23T17:51:38.331Z,2.50
2018-11-23T17:53:41.796Z,2.40
2018-11-23T17:55:44.910Z,2.40
2018-11-23T17:57:48.276Z,2.30
2018-11-23T17:59:51.374Z,2.30
2018-11-23T18:01:54.498Z,2.30
2018-11-23T18:03:57.595Z,2.30
2018-11-23T18:06:00.689Z,2.30
2018-11-23T18:08:04.470Z,2.30
2018-11-23T18:10:09.318Z,2.20
2018-11-23T18:12:12.429Z,2.20
2018-11-23T18:14:15.529Z,2.20
2018-11-23T18:16:18.624Z,2.20
2018-11-23T18:18:21.752Z,2.10
2018-11-23T18:20:25.726Z,2.10
2018-11-23T18:22:28.834Z,2.10
2018-11-23T18:24:31.937Z,2.00
2018-11-23T18:26:35.069Z,2.00
2018-11-23T18:28:38.161Z,2.00
2018-11-23T18:30:41.269Z,1.90
2018-11-23T18:32:44.365Z,1.90
2018-11-23T18:34:47.449Z,1.90
2018-11-23T18:36:50.590Z,1.90
2018-11-23T18:57:24.029Z,1.70
2018-11-23T18:59:40.111Z,1.60
2018-11-23T19:14:47.359Z,1.60
2018-11-23T19:16:59.126Z,1.40
2018-11-23T19:19:16.970Z,1.40
2018-11-23T19:21:31.478Z,1.30
2018-11-23T19:23:49.234Z,1.40
2018-11-23T19:26:08.187Z,1.30
2018-11-23T19:28:12.123Z,1.30
2018-11-23T19:30:37.966Z,1.30
2018-11-23T19:32:45.661Z,1.30
2018-11-23T19:35:11.661Z,1.20
2018-11-23T19:37:25.269Z,1.20
2018-11-23T19:39:31.728Z,1.20
2018-11-23T19:41:44.458Z,1.10
2018-11-23T19:43:55.582Z,1.10
2018-11-23T19:46:11.891Z,1.10
2018-11-23T19:48:35.539Z,1.00
2018-11-23T19:53:49.265Z,1.00
2018-11-23T19:56:06.662Z,1.00
2018-11-23T19:58:20.914Z,1.00
2018-11-23T20:00:27.467Z,1.00
2018-11-23T20:02:42.726Z,1.00
2018-11-23T20:04:51.016Z,1.00
2018-11-23T20:09:47.288Z,0.90
2018-11-23T20:11:59.819Z,0.90
2018-11-23T20:14:18.711Z,0.90
2018-11-23T20:16:30.988Z,0.90
2018-11-23T20:19:18.329Z,0.90
2018-11-23T20:21:42.349Z,0.90
2018-11-23T20:24:15.211Z,0.90
2018-11-23T20:26:38.327Z,0.80
2018-11-23T20:37:49.806Z,0.70
2018-11-23T20:40:19.061Z,0.70
2018-11-23T20:42:46.400Z,0.70
2018-11-23T20:45:12.276Z,0.70
2018-11-23T20:50:42.766Z,0.60
2018-11-23T20:53:04.194Z,0.50
2018-11-23T20:55:30.598Z,0.50
2018-11-23T20:58:05.719Z,0.50
2018-11-23T21:00:32.900Z,0.50
2018-11-23T21:05:02.306Z,0.40
2018-11-23T21:07:26.505Z,0.40
2018-11-23T21:09:50.182Z,0.30
2018-11-23T21:11:57.266Z,0.30
2018-11-23T21:14:08.766Z,0.30
2018-11-23T21:16:20.049Z,0.30
2018-11-23T21:18:31.397Z,0.30
2018-11-23T21:20:47.181Z,0.20
2018-11-23T21:23:02.470Z,0.20
2018-11-23T21:25:21.343Z,0.20
2018-11-23T21:27:37.428Z,0.20
2018-11-23T21:30:00.636Z,0.10
2018-11-23T21:32:09.951Z,0.10
2018-11-23T21:34:17.064Z,0.10
2018-11-23T21:36:27.072Z,0.10
2018-11-23T21:38:45.741Z,0.10
2018-11-23T21:40:54.690Z,0.00
2018-11-23T21:43:04.845Z,0.00
2018-11-23T21:45:16.834Z,0.00
2018-11-23T21:47:31.343Z,0.00
2018-11-23T21:49:44.980Z,0.00
2018-11-23T21:52:25.936Z,0.00
2018-11-23T21:54:36.183Z,-0.10
2018-11-23T21:56:48.874Z,-0.10
2018-11-23T22:00:03.800Z,-0.10
2018-11-23T22:02:22.454Z,-0.10
2018-11-23T22:04:33.646Z,-0.20
2018-11-23T22:06:49.883Z,-0.20
2018-11-23T22:09:16.980Z,-0.20
2018-11-23T22:11:26.203Z,-0.20
2018-11-23T22:13:33.066Z,-0.20
2018-11-23T22:15:40.316Z,-0.20
2018-11-23T22:17:47.515Z,-0.20
2018-11-23T22:19:59.327Z,-0.30
2018-11-23T22:22:07.422Z,-0.30
2018-11-23T22:24:13.389Z,-0.30
2018-11-23T22:26:21.399Z,-0.30
2018-11-23T22:28:26.200Z,-0.30
2018-11-23T22:30:31.623Z,-0.30
2018-11-23T22:32:35.853Z,-0.30
2018-11-23T22:34:39.818Z,-0.30
2018-11-23T22:36:44.617Z,-0.30
2018-11-23T22:38:48.388Z,-0.30
2018-11-23T22:40:52.509Z,-0.30
2018-11-23T22:42:59.686Z,-0.30
2018-11-23T22:45:03.281Z,-0.30
2018-11-23T22:47:06.599Z,-0.30
2018-11-23T22:49:09.957Z,-0.20
2018-11-23T22:51:13.289Z,-0.20
2018-11-23T22:53:16.657Z,-0.20
2018-11-23T22:55:20.157Z,-0.20
2018-11-23T22:57:23.480Z,-0.20
2018-11-23T22:59:26.865Z,-0.20
2018-11-23T23:01:30.206Z,-0.20
2018-11-23T23:03:33.528Z,-0.20
2018-11-23T23:05:36.880Z,-0.20
2018-11-23T23:07:40.194Z,-0.30
2018-11-23T23:09:43.558Z,-0.30
2018-11-23T23:11:48.729Z,-0.30
2018-11-23T23:13:52.056Z,-0.30
2018-11-23T23:15:55.460Z,-0.30
2018-11-23T23:17:58.843Z,-0.30
2018-11-23T23:20:02.158Z,-0.30
2018-11-23T23:22:05.484Z,-0.40
2018-11-23T23:24:11.933Z,-0.40
2018-11-23T23:26:12.131Z,-0.40
2018-11-23T23:28:15.531Z,-0.40
2018-11-23T23:30:19.911Z,-0.40
2018-11-23T23:32:23.286Z,-0.40
2018-11-23T23:34:26.748Z,-0.40
2018-11-23T23:36:30.040Z,-0.40
2018-11-23T23:38:33.387Z,-0.40
2018-11-23T23:40:37.739Z,-0.40
2018-11-23T23:42:41.083Z,-0.30
2018-11-23T23:44:44.470Z,-0.30
2018-11-23T23:46:47.811Z,-0.30
2018-11-23T23:48:54.485Z,-0.30
2018-11-23T23:50:58.452Z,-0.30
2018-11-23T23:53:02.711Z,-0.30
2018-11-23T23:55:07.239Z,-0.30
2018-11-23T23:57:10.632Z,-0.30
2018-11-23T23:59:13.995Z,-0.30
